createdAt,value
2019-03-30T00:01:51.620Z,59.60
2019-03-30T00:04:19.931Z,59.90
2019-03-30T00:06:48.158Z,60.00
2019-03-30T00:09:16.367Z,59.80
2019-03-30T00:11:44.609Z,59.90
2019-03-30T00:14:13.048Z,60.10
2019-03-30T00:16:41.285Z,60.80
2019-03-30T00:19:09.634Z,60.90
2019-03-30T00:21:39.092Z,61.40
2019-03-30T00:24:08.421Z,61.10
2019-03-30T00:26:36.779Z,60.90
2019-03-30T00:29:05.146Z,60.80
2019-03-30T00:31:33.485Z,60.90
2019-03-30T00:34:01.794Z,60.90
2019-03-30T00:36:30.200Z,61.10
2019-03-30T00:38:58.360Z,61.00
2019-03-30T00:41:26.755Z,61.10
2019-03-30T00:43:54.905Z,62.70
2019-03-30T00:46:23.347Z,63.30
2019-03-30T00:48:51.576Z,63.30
2019-03-30T00:51:19.889Z,62.50
2019-03-30T00:53:48.124Z,61.90
2019-03-30T00:56:16.412Z,62.30
2019-03-30T00:58:44.642Z,62.10
2019-03-30T01:01:13.145Z,62.20
2019-03-30T01:03:41.463Z,62.50
2019-03-30T01:06:10.250Z,62.50
2019-03-30T01:08:38.581Z,62.60
2019-03-30T01:11:06.984Z,63.00
2019-03-30T01:13:35.214Z,63.60
2019-03-30T01:16:04.438Z,63.70
2019-03-30T01:18:32.663Z,64.80
2019-03-30T01:21:00.941Z,64.40
2019-03-30T01:23:29.238Z,63.60
2019-03-30T01:25:57.458Z,63.30
2019-03-30T01:28:26.380Z,64.90
2019-03-30T01:30:54.591Z,65.70
2019-03-30T01:33:22.938Z,65.20
2019-03-30T01:35:51.151Z,66.10
2019-03-30T01:38:19.558Z,66.60
2019-03-30T01:40:47.813Z,66.30
2019-03-30T01:43:16.097Z,66.30
2019-03-30T01:45:44.429Z,66.90
2019-03-30T01:48:12.711Z,66.90
2019-03-30T01:50:40.929Z,66.50
2019-03-30T01:53:09.269Z,66.40
2019-03-30T01:55:37.381Z,66.10
2019-03-30T01:58:05.653Z,66.50
2019-03-30T02:00:34.030Z,66.50
2019-03-30T02:03:02.428Z,66.00
2019-03-30T02:05:30.664Z,66.30
2019-03-30T02:07:58.967Z,66.50
2019-03-30T02:10:41.011Z,66.40
2019-03-30T02:13:12.863Z,66.70
2019-03-30T02:15:44.279Z,66.50
2019-03-30T02:18:12.590Z,66.40
2019-03-30T02:20:42.423Z,66.50
2019-03-30T02:23:12.363Z,66.60
2019-03-30T02:25:41.066Z,67.00
2019-03-30T02:28:09.704Z,68.20
2019-03-30T02:30:38.027Z,67.90
2019-03-30T02:33:06.657Z,67.40
2019-03-30T02:35:34.990Z,67.20
2019-03-30T02:38:03.237Z,67.10
2019-03-30T02:40:31.627Z,67.20
2019-03-30T02:43:00.197Z,67.30
2019-03-30T02:45:28.702Z,68.10
2019-03-30T02:47:56.917Z,68.00
2019-03-30T02:50:25.247Z,68.10
2019-03-30T02:52:53.638Z,68.40
2019-03-30T02:55:21.930Z,68.30
2019-03-30T02:57:50.281Z,68.20
2019-03-30T03:00:18.961Z,69.00
2019-03-30T03:02:47.397Z,68.90
2019-03-30T03:05:16.072Z,69.50
2019-03-30T03:07:44.707Z,70.30
2019-03-30T03:10:13.654Z,70.50
2019-03-30T03:12:42.353Z,70.40
2019-03-30T03:15:10.976Z,69.80
2019-03-30T03:17:39.447Z,69.50
2019-03-30T03:20:08.193Z,69.60
2019-03-30T03:22:36.972Z,69.10
2019-03-30T03:25:05.404Z,69.40
2019-03-30T03:27:34.310Z,69.50
2019-03-30T03:30:02.852Z,69.50
2019-03-30T03:32:32.940Z,69.50
2019-03-30T03:35:01.181Z,69.40
2019-03-30T03:37:43.132Z,69.30
2019-03-30T03:40:00.480Z,69.40
2019-03-30T03:42:29.251Z,69.70
2019-03-30T03:44:57.458Z,69.70
2019-03-30T03:47:25.754Z,69.60
2019-03-30T03:49:54.059Z,69.60
2019-03-30T03:52:22.364Z,69.80
2019-03-30T03:54:51.948Z,71.00
2019-03-30T03:57:22.838Z,70.70
2019-03-30T03:59:54.865Z,71.00
2019-03-30T04:02:27.087Z,71.50
2019-03-30T04:05:00.449Z,71.40
2019-03-30T04:07:32.719Z,71.10
2019-03-30T04:10:04.236Z,71.20
2019-03-30T04:12:35.758Z,71.20
2019-03-30T04:15:05.508Z,71.20
2019-03-30T04:17:35.092Z,70.90
2019-03-30T04:20:04.177Z,70.70
2019-03-30T04:22:32.682Z,70.70
2019-03-30T04:25:00.927Z,70.80
2019-03-30T04:27:30.863Z,71.00
2019-03-30T04:29:59.024Z,71.10
2019-03-30T04:32:27.327Z,71.20
2019-03-30T04:34:55.567Z,71.20
2019-03-30T04:37:23.945Z,71.20
2019-03-30T04:39:52.174Z,71.40
2019-03-30T04:42:20.454Z,71.50
2019-03-30T04:44:48.659Z,71.40
2019-03-30T04:47:16.970Z,72.00
2019-03-30T04:49:45.238Z,72.40
2019-03-30T04:52:13.534Z,72.30
2019-03-30T04:54:41.876Z,73.00
2019-03-30T04:57:10.090Z,72.30
2019-03-30T04:59:38.387Z,72.40
2019-03-30T05:02:06.674Z,72.60
2019-03-30T05:04:35.012Z,73.00
2019-03-30T05:07:03.326Z,73.10
2019-03-30T05:09:31.497Z,72.70
2019-03-30T05:11:59.733Z,72.70
2019-03-30T05:14:28.650Z,73.20
2019-03-30T05:16:56.870Z,73.30
2019-03-30T05:19:25.670Z,73.20
2019-03-30T05:21:53.983Z,73.10
2019-03-30T05:24:22.319Z,73.00
2019-03-30T05:26:50.523Z,73.30
2019-03-30T05:29:18.825Z,73.50
2019-03-30T05:31:47.300Z,73.30
2019-03-30T05:34:15.638Z,73.20
2019-03-30T05:36:43.918Z,73.10
2019-03-30T05:39:12.234Z,73.20
2019-03-30T05:41:59.917Z,73.20
2019-03-30T05:44:28.202Z,73.30
2019-03-30T05:46:56.461Z,75.00
2019-03-30T05:49:24.842Z,75.00
2019-03-30T05:51:53.135Z,75.30
2019-03-30T05:54:21.414Z,75.20
2019-03-30T05:56:49.675Z,75.20
2019-03-30T05:59:17.982Z,74.80
2019-03-30T06:01:46.315Z,74.80
2019-03-30T06:04:14.641Z,75.00
2019-03-30T06:06:42.870Z,75.50
2019-03-30T06:09:11.082Z,75.60
2019-03-30T06:11:39.469Z,75.40
2019-03-30T06:14:07.688Z,75.90
2019-03-30T06:16:36.086Z,76.60
2019-03-30T06:19:04.349Z,76.60
2019-03-30T06:21:32.646Z,76.50
2019-03-30T06:24:00.878Z,76.50
2019-03-30T06:26:29.184Z,77.30
2019-03-30T06:28:57.445Z,77.60
2019-03-30T06:31:25.637Z,78.10
2019-03-30T06:33:53.861Z,78.00
2019-03-30T06:36:22.133Z,78.40
2019-03-30T06:38:50.366Z,78.40
2019-03-30T06:41:18.687Z,78.80
2019-03-30T06:43:46.929Z,79.70
2019-03-30T06:46:15.252Z,80.50
2019-03-30T06:48:43.709Z,80.80
2019-03-30T06:51:12.030Z,80.80
2019-03-30T06:53:40.297Z,80.60
2019-03-30T06:56:08.580Z,81.50
2019-03-30T06:58:36.846Z,82.20
2019-03-30T07:01:05.393Z,82.20
2019-03-30T07:03:33.976Z,83.40
2019-03-30T07:06:02.478Z,83.50
2019-03-30T07:08:32.315Z,83.80
2019-03-30T07:11:02.641Z,83.10
2019-03-30T07:13:34.997Z,82.90
2019-03-30T07:16:05.463Z,82.90
2019-03-30T07:18:35.625Z,83.40
2019-03-30T07:21:05.480Z,83.70
2019-03-30T07:23:33.864Z,83.40
2019-03-30T07:26:02.036Z,83.40
2019-03-30T07:28:30.330Z,84.20
2019-03-30T07:30:58.542Z,84.60
2019-03-30T07:33:27.066Z,84.90
2019-03-30T07:35:55.205Z,84.00
2019-03-30T07:38:23.537Z,83.30
2019-03-30T07:40:51.802Z,83.20
2019-03-30T07:43:20.107Z,81.90
2019-03-30T07:45:48.367Z,82.30
2019-03-30T07:48:16.846Z,81.50
2019-03-30T07:50:45.263Z,80.90
2019-03-30T07:53:25.774Z,81.50
2019-03-30T07:55:43.675Z,80.30
2019-03-30T07:58:12.030Z,80.90
2019-03-30T08:00:40.389Z,80.40
2019-03-30T08:03:08.746Z,80.20
2019-03-30T08:05:37.063Z,80.30
2019-03-30T08:08:05.406Z,80.10
2019-03-30T08:10:33.766Z,80.40
2019-03-30T08:13:02.028Z,79.20
2019-03-30T08:15:30.379Z,78.20
2019-03-30T08:17:58.654Z,78.20
2019-03-30T08:20:27.133Z,77.00
2019-03-30T08:22:55.339Z,77.00
2019-03-30T08:25:29.539Z,76.80
2019-03-30T08:27:58.106Z,76.30
2019-03-30T08:30:26.573Z,76.10
2019-03-30T08:32:54.856Z,75.90
2019-03-30T08:35:23.208Z,75.50
2019-03-30T08:37:51.584Z,74.90
2019-03-30T08:40:19.922Z,75.10
2019-03-30T08:42:48.175Z,75.50
2019-03-30T08:45:16.527Z,73.60
2019-03-30T08:47:44.794Z,73.30
2019-03-30T08:50:16.011Z,72.80
2019-03-30T08:52:44.332Z,73.20
2019-03-30T08:55:12.786Z,73.00
2019-03-30T08:57:41.096Z,71.80
2019-03-30T09:00:09.450Z,73.20
2019-03-30T09:02:38.365Z,72.40
2019-03-30T09:05:07.625Z,72.60
2019-03-30T09:07:36.274Z,72.20
2019-03-30T09:10:06.492Z,70.30
2019-03-30T09:12:35.446Z,71.80
2019-03-30T09:15:04.267Z,70.10
2019-03-30T09:17:37.041Z,69.80
2019-03-30T09:20:05.413Z,68.10
2019-03-30T09:22:33.943Z,67.10
2019-03-30T09:25:02.268Z,63.80
2019-03-30T09:27:30.905Z,62.20
2019-03-30T09:29:59.133Z,61.00
2019-03-30T09:32:27.456Z,59.50
2019-03-30T09:34:55.705Z,58.40
2019-03-30T09:37:24.150Z,56.50
2019-03-30T09:39:52.450Z,57.60
2019-03-30T09:42:20.859Z,56.20
2019-03-30T09:44:49.213Z,57.90
2019-03-30T09:47:17.596Z,56.20
2019-03-30T09:49:45.892Z,57.10
2019-03-30T09:52:14.219Z,56.70
2019-03-30T09:54:42.524Z,57.50
2019-03-30T09:57:10.846Z,55.70
2019-03-30T09:59:39.109Z,55.50
2019-03-30T10:02:07.549Z,57.30
2019-03-30T10:04:35.832Z,55.00
2019-03-30T10:07:04.178Z,56.00
2019-03-30T10:09:32.436Z,57.30
2019-03-30T10:12:01.025Z,56.30
2019-03-30T10:14:29.329Z,55.60
2019-03-30T10:16:57.661Z,54.70
2019-03-30T10:19:27.847Z,55.50
2019-03-30T10:21:56.063Z,54.60
2019-03-30T10:24:37.450Z,54.70
2019-03-30T10:26:54.586Z,55.10
2019-03-30T10:29:23.197Z,56.00
2019-03-30T10:31:51.514Z,55.80
2019-03-30T10:34:19.784Z,55.90
2019-03-30T10:36:48.117Z,56.10
2019-03-30T10:39:16.447Z,54.30
2019-03-30T10:41:44.721Z,55.10
2019-03-30T10:44:13.144Z,53.70
2019-03-30T10:46:41.436Z,53.80
2019-03-30T10:49:09.736Z,54.20
2019-03-30T10:51:37.988Z,51.30
2019-03-30T10:54:06.333Z,52.80
2019-03-30T10:56:34.640Z,52.30
2019-03-30T10:59:02.993Z,50.90
2019-03-30T11:01:31.271Z,52.30
2019-03-30T11:03:59.791Z,51.20
2019-03-30T11:06:28.168Z,51.40
2019-03-30T11:08:56.506Z,50.80
2019-03-30T11:11:24.869Z,51.80
2019-03-30T11:13:53.047Z,48.10
2019-03-30T11:16:21.441Z,49.80
2019-03-30T11:18:49.716Z,51.50
2019-03-30T11:21:18.145Z,47.50
2019-03-30T11:23:46.539Z,49.80
2019-03-30T11:26:14.871Z,48.60
2019-03-30T11:28:43.240Z,48.40
2019-03-30T11:31:11.596Z,49.30
2019-03-30T11:33:42.586Z,48.70
2019-03-30T11:36:10.937Z,48.80
2019-03-30T11:38:39.312Z,45.40
2019-03-30T11:41:07.627Z,46.00
2019-03-30T11:43:35.905Z,48.70
2019-03-30T11:46:04.230Z,47.30
2019-03-30T11:48:32.745Z,43.00
2019-03-30T11:51:01.101Z,40.60
2019-03-30T11:53:34.970Z,45.10
2019-03-30T11:56:03.447Z,43.60
2019-03-30T11:58:31.727Z,43.30
2019-03-30T12:01:00.063Z,43.40
2019-03-30T12:03:28.909Z,43.10
2019-03-30T12:05:57.252Z,41.40
2019-03-30T12:08:25.521Z,40.90
2019-03-30T12:10:53.815Z,41.20
2019-03-30T12:13:22.149Z,41.00
2019-03-30T12:15:50.402Z,40.50
2019-03-30T12:18:18.701Z,39.30
2019-03-30T12:20:47.124Z,38.40
2019-03-30T12:23:15.735Z,37.10
2019-03-30T12:28:12.252Z,38.40
2019-03-30T12:30:40.657Z,39.30
2019-03-30T12:33:09.217Z,37.90
2019-03-30T12:35:37.527Z,39.70
2019-03-30T12:38:06.039Z,37.40
2019-03-30T12:40:34.338Z,37.10
2019-03-30T12:43:02.787Z,39.10
2019-03-30T12:45:31.056Z,37.50
2019-03-30T12:47:59.503Z,36.20
2019-03-30T12:50:27.746Z,38.80
2019-03-30T12:52:55.943Z,38.10
2019-03-30T12:55:24.268Z,39.00
2019-03-30T12:57:52.681Z,38.50
2019-03-30T13:00:20.975Z,38.50
2019-03-30T13:02:49.464Z,36.80
2019-03-30T13:05:17.722Z,38.40
2019-03-30T13:07:48.063Z,37.50
2019-03-30T13:10:16.364Z,38.20
2019-03-30T13:12:44.814Z,37.90
2019-03-30T13:15:13.217Z,38.90
2019-03-30T13:17:41.858Z,35.80
2019-03-30T13:20:10.415Z,37.70
2019-03-30T13:22:39.240Z,36.50
2019-03-30T13:35:02.394Z,36.00
2019-03-30T13:37:31.238Z,37.10
2019-03-30T13:39:59.645Z,34.80
2019-03-30T13:42:27.915Z,34.10
2019-03-30T13:44:56.226Z,32.60
2019-03-30T13:47:24.509Z,32.40
2019-03-30T13:49:52.943Z,35.10
2019-03-30T13:52:21.318Z,36.20
2019-03-30T13:54:49.637Z,34.80
2019-03-30T15:13:18.752Z,33.40
2019-03-30T15:15:46.998Z,32.70
2019-03-30T15:18:15.365Z,33.20
2019-03-30T15:20:53.968Z,32.20
2019-03-30T15:23:27.147Z,33.50
2019-03-30T15:25:55.605Z,31.80
2019-03-30T15:28:24.218Z,32.70
2019-03-30T15:30:55.942Z,32.80
2019-03-30T15:33:27.873Z,33.60
2019-03-30T15:35:59.604Z,34.30
2019-03-30T15:38:30.032Z,33.90
2019-03-30T15:40:58.406Z,33.90
2019-03-30T15:43:38.126Z,32.80
2019-03-30T15:46:08.516Z,34.00
2019-03-30T15:48:48.260Z,33.80
2019-03-30T15:51:21.957Z,33.90
2019-03-30T15:54:10.939Z,34.60
2019-03-30T15:56:40.426Z,34.50
2019-03-30T15:59:09.221Z,32.90
2019-03-30T16:01:37.685Z,33.30
2019-03-30T16:04:06.152Z,34.10
2019-03-30T16:06:34.433Z,33.10
2019-03-30T16:09:04.565Z,32.40
2019-03-30T16:11:33.256Z,32.30
2019-03-30T16:14:01.761Z,34.70
2019-03-30T16:16:30.123Z,32.00
2019-03-30T16:18:58.409Z,31.50
2019-03-30T16:21:26.784Z,32.40
2019-03-30T16:23:55.032Z,32.10
2019-03-30T16:26:23.374Z,32.60
2019-03-30T16:28:51.752Z,32.50
2019-03-30T16:31:20.125Z,33.60
2019-03-30T16:33:48.455Z,32.70
2019-03-30T16:36:16.879Z,33.00
2019-03-30T16:38:45.158Z,34.00
2019-03-30T16:41:13.549Z,31.70
2019-03-30T16:43:41.804Z,32.80
2019-03-30T16:46:10.159Z,33.50
2019-03-30T16:48:38.502Z,32.50
2019-03-30T16:51:06.835Z,31.90
2019-03-30T16:53:35.085Z,31.80
2019-03-30T16:56:03.499Z,32.30
2019-03-30T16:58:31.764Z,32.40
2019-03-30T17:01:00.195Z,32.50
2019-03-30T17:03:28.865Z,33.20
2019-03-30T17:05:57.347Z,33.70
2019-03-30T17:08:25.691Z,34.10
2019-03-30T17:10:54.276Z,34.80
2019-03-30T17:13:22.644Z,35.50
2019-03-30T17:15:50.890Z,36.50
2019-03-30T17:18:19.245Z,36.40
2019-03-30T17:20:47.602Z,36.80
2019-03-30T17:23:16.150Z,37.50
2019-03-30T17:25:44.421Z,37.10
2019-03-30T17:28:12.801Z,37.00
2019-03-30T17:30:41.106Z,37.20
2019-03-30T17:33:09.618Z,37.30
2019-03-30T17:35:38.108Z,37.80
2019-03-30T17:38:06.598Z,37.60
2019-03-30T17:40:34.859Z,37.80
2019-03-30T17:43:03.267Z,38.70
2019-03-30T17:45:31.560Z,38.70
2019-03-30T17:47:59.869Z,39.10
2019-03-30T17:50:28.645Z,39.00
2019-03-30T17:52:56.987Z,38.70
2019-03-30T17:55:33.667Z,38.50
2019-03-30T17:57:55.524Z,38.60
2019-03-30T18:00:23.870Z,39.00
2019-03-30T18:02:52.431Z,38.90
2019-03-30T18:05:20.738Z,39.00
2019-03-30T18:07:49.107Z,39.00
2019-03-30T18:10:17.413Z,39.00
2019-03-30T18:12:45.879Z,39.10
2019-03-30T18:15:14.872Z,39.00
2019-03-30T18:17:43.345Z,39.10
2019-03-30T18:20:12.019Z,38.90
2019-03-30T18:22:40.499Z,38.90
2019-03-30T18:25:08.941Z,39.40
2019-03-30T18:27:37.599Z,39.00
2019-03-30T18:30:06.679Z,38.70
2019-03-30T18:32:35.674Z,39.30
2019-03-30T18:35:04.173Z,39.20
2019-03-30T18:37:35.312Z,39.50
2019-03-30T18:40:05.576Z,40.00
2019-03-30T18:42:34.173Z,40.10
2019-03-30T18:45:04.349Z,40.20
2019-03-30T18:47:33.270Z,40.50
2019-03-30T18:50:01.807Z,40.40
2019-03-30T18:52:32.113Z,40.80
2019-03-30T18:55:01.085Z,40.90
2019-03-30T18:57:29.644Z,41.20
2019-03-30T18:59:57.990Z,41.50
2019-03-30T19:02:26.261Z,41.90
2019-03-30T19:04:54.721Z,42.10
2019-03-30T19:07:23.066Z,42.30
2019-03-30T19:09:51.389Z,42.40
2019-03-30T19:12:19.643Z,42.20
2019-03-30T19:14:47.995Z,42.40
2019-03-30T19:17:16.343Z,42.20
2019-03-30T19:19:44.702Z,42.50
2019-03-30T19:22:13.042Z,42.60
2019-03-30T19:24:41.526Z,42.60
2019-03-30T19:27:09.958Z,42.50
2019-03-30T19:29:38.199Z,42.20
2019-03-30T19:32:06.570Z,42.10
2019-03-30T19:34:34.834Z,42.40
2019-03-30T19:37:03.213Z,42.80
2019-03-30T19:39:31.805Z,42.60
2019-03-30T19:42:00.289Z,43.10
2019-03-30T19:44:28.665Z,43.30
2019-03-30T19:46:57.089Z,43.40
2019-03-30T19:49:25.362Z,42.90
2019-03-30T19:51:53.739Z,43.60
2019-03-30T19:54:21.992Z,44.20
2019-03-30T19:56:50.315Z,44.10
2019-03-30T19:59:18.711Z,44.30
2019-03-30T20:01:47.039Z,44.00
2019-03-30T20:04:15.574Z,44.30
2019-03-30T20:06:43.968Z,44.20
2019-03-30T20:09:12.322Z,44.40
2019-03-30T20:11:40.730Z,44.80
2019-03-30T20:14:09.074Z,44.70
2019-03-30T20:16:37.522Z,44.60
2019-03-30T20:19:12.790Z,44.40
2019-03-30T20:21:36.015Z,44.60
2019-03-30T20:24:04.406Z,44.40
2019-03-30T20:26:32.726Z,44.70
2019-03-30T20:29:01.174Z,44.50
2019-03-30T20:31:29.554Z,45.00
2019-03-30T20:33:57.930Z,45.30
2019-03-30T20:36:26.239Z,45.20
2019-03-30T20:38:54.733Z,45.30
2019-03-30T20:41:23.131Z,45.20
2019-03-30T20:43:51.477Z,45.30
2019-03-30T20:46:19.792Z,45.70
2019-03-30T20:48:48.319Z,45.50
2019-03-30T20:51:16.745Z,45.40
2019-03-30T20:53:45.230Z,45.70
2019-03-30T20:56:13.607Z,45.70
2019-03-30T20:58:42.010Z,45.80
2019-03-30T21:01:10.214Z,45.80
2019-03-30T21:03:38.772Z,45.80
2019-03-30T21:06:07.039Z,46.10
2019-03-30T21:08:35.458Z,45.90
2019-03-30T21:11:03.842Z,45.90
2019-03-30T21:13:32.267Z,45.80
2019-03-30T21:16:00.763Z,45.90
2019-03-30T21:18:30.130Z,46.10
2019-03-30T21:20:58.498Z,46.20
2019-03-30T21:23:26.833Z,46.30
2019-03-30T21:25:55.174Z,46.40
2019-03-30T21:28:23.430Z,46.70
2019-03-30T21:30:51.839Z,47.10
2019-03-30T21:33:20.128Z,46.90
2019-03-30T21:35:48.515Z,47.40
2019-03-30T21:38:16.809Z,47.10
2019-03-30T21:40:45.559Z,47.80
2019-03-30T21:43:13.931Z,47.70
2019-03-30T21:45:42.275Z,47.90
2019-03-30T21:48:10.588Z,47.70
2019-03-30T21:50:38.992Z,48.10
2019-03-30T21:53:07.249Z,47.90
2019-03-30T21:55:35.726Z,48.60
2019-03-30T21:58:04.261Z,48.00
2019-03-30T22:00:34.785Z,48.30
2019-03-30T22:03:04.802Z,48.50
2019-03-30T22:05:33.653Z,48.40
2019-03-30T22:08:02.966Z,48.20
2019-03-30T22:10:31.840Z,48.20
2019-03-30T22:13:00.175Z,48.60
2019-03-30T22:15:28.951Z,49.00
2019-03-30T22:17:57.507Z,50.00
2019-03-30T22:20:25.773Z,49.20
2019-03-30T22:22:54.137Z,49.50
2019-03-30T22:25:22.400Z,50.20
2019-03-30T22:27:50.657Z,50.40
2019-03-30T22:30:25.148Z,50.80
2019-03-30T22:32:49.254Z,50.00
2019-03-30T22:35:17.500Z,49.60
2019-03-30T22:37:45.842Z,49.80
2019-03-30T22:40:14.126Z,49.80
2019-03-30T22:42:42.473Z,49.90
2019-03-30T22:45:10.806Z,49.50
2019-03-30T22:47:39.126Z,49.70
2019-03-30T22:50:07.870Z,49.70
2019-03-30T22:52:36.610Z,50.80
2019-03-30T22:55:05.066Z,51.70
2019-03-30T22:57:33.886Z,51.90
2019-03-30T23:00:02.452Z,51.60
2019-03-30T23:02:32.402Z,51.40
2019-03-30T23:05:00.846Z,50.90
2019-03-30T23:07:29.130Z,51.70
2019-03-30T23:09:57.485Z,51.80
2019-03-30T23:12:25.857Z,52.00
2019-03-30T23:14:54.259Z,51.70
2019-03-30T23:17:22.572Z,51.80
2019-03-30T23:19:50.923Z,51.80
2019-03-30T23:22:19.191Z,51.70
2019-03-30T23:24:47.446Z,52.20
2019-03-30T23:27:15.670Z,52.30
2019-03-30T23:29:43.976Z,52.00
2019-03-30T23:32:12.211Z,51.90
2019-03-30T23:34:40.551Z,51.80
2019-03-30T23:37:08.762Z,51.90
2019-03-30T23:39:37.036Z,51.90
2019-03-30T23:42:05.302Z,51.70
2019-03-30T23:44:33.701Z,52.00
2019-03-30T23:47:01.998Z,52.10
2019-03-30T23:49:30.552Z,52.80
2019-03-30T23:51:58.705Z,52.70
2019-03-30T23:54:27.008Z,53.60
2019-03-30T23:56:55.350Z,53.20
2019-03-30T23:59:23.668Z,53.10
